createdAt,value
2023-04-02T00:02:54.639Z,10.13
2023-04-02T00:08:00.503Z,12.07
2023-04-02T00:13:12.086Z,8.57
2023-04-02T00:18:20.778Z,15.23
2023-04-02T00:23:23.668Z,10.90
2023-04-02T00:28:26.544Z,16.55
2023-04-02T00:33:31.917Z,11.57
2023-04-02T00:38:35.354Z,12.82
2023-04-02T00:43:39.501Z,10.50
2023-04-02T00:49:05.757Z,7.75
2023-04-02T00:54:16.006Z,9.90
2023-04-02T00:59:26.950Z,8.00
2023-04-02T01:04:36.765Z,11.15
2023-04-02T01:10:10.869Z,7.97
2023-04-02T01:15:20.973Z,4.90
2023-04-02T01:20:47.845Z,7.63
2023-04-02T01:26:15.156Z,6.50
2023-04-02T01:31:17.834Z,8.82
2023-04-02T01:36:52.280Z,7.93
2023-04-02T01:42:06.302Z,7.60
2023-04-02T01:47:13.473Z,5.78
2023-04-02T01:52:26.682Z,9.63
2023-04-02T01:57:29.145Z,7.70
2023-04-02T02:02:31.504Z,13.05
2023-04-02T02:07:33.719Z,11.43
2023-04-02T02:12:36.576Z,11.68
2023-04-02T02:17:39.057Z,9.45
2023-04-02T02:22:46.377Z,15.73
2023-04-02T02:27:57.034Z,9.88
2023-04-02T02:33:22.216Z,10.35
2023-04-02T02:38:58.331Z,6.85
2023-04-02T02:44:10.847Z,12.20
2023-04-02T02:49:19.512Z,7.03
2023-04-02T02:54:22.286Z,9.43
2023-04-02T02:59:25.081Z,9.98
2023-04-02T03:04:30.808Z,14.50
2023-04-02T03:09:44.776Z,12.57
2023-04-02T03:14:57.609Z,11.48
2023-04-02T03:20:31.374Z,8.38
2023-04-02T03:25:44.821Z,14.00
2023-04-02T03:31:22.341Z,12.32
2023-04-02T03:36:32.046Z,14.05
2023-04-02T03:42:01.988Z,15.60
2023-04-02T03:47:27.374Z,12.73
2023-04-02T03:52:31.311Z,12.25
2023-04-02T03:57:43.614Z,18.95
2023-04-02T04:02:49.505Z,20.60
2023-04-02T04:08:00.087Z,20.50
2023-04-02T04:13:08.923Z,20.77
2023-04-02T04:18:35.191Z,15.57
2023-04-02T04:23:50.577Z,19.75
2023-04-02T04:29:17.282Z,14.85
2023-04-02T04:34:26.866Z,17.70
2023-04-02T04:39:46.163Z,11.32
2023-04-02T04:45:23.642Z,15.90
2023-04-02T04:50:37.121Z,21.05
2023-04-02T04:55:44.538Z,18.58
2023-04-02T05:01:03.193Z,22.10
2023-04-02T05:06:30.908Z,19.42
2023-04-02T05:11:47.471Z,24.13
2023-04-02T05:16:57.927Z,29.77
2023-04-02T05:22:18.284Z,23.95
2023-04-02T05:28:06.487Z,27.13
2023-04-02T05:33:18.325Z,24.77
2023-04-02T05:38:25.440Z,26.48
2023-04-02T05:43:30.420Z,30.83
2023-04-02T05:48:43.577Z,25.00
2023-04-02T05:54:14.025Z,26.65
2023-04-02T05:59:27.590Z,31.83
2023-04-02T06:04:55.829Z,17.70
2023-04-02T06:10:36.802Z,24.52
2023-04-02T06:15:39.651Z,23.60
2023-04-02T06:20:46.808Z,22.88
2023-04-02T06:26:26.521Z,25.33
2023-04-02T06:31:36.558Z,31.80
2023-04-02T06:36:41.396Z,28.42
2023-04-02T06:41:45.783Z,33.35
2023-04-02T06:47:23.110Z,23.48
2023-04-02T06:52:37.550Z,24.00
2023-04-02T06:57:43.032Z,20.35
2023-04-02T07:02:46.804Z,19.52
2023-04-02T07:07:49.308Z,28.85
2023-04-02T07:12:52.664Z,30.23
2023-04-02T07:17:59.414Z,16.55
2023-04-02T07:23:02.457Z,24.98
2023-04-02T07:28:05.160Z,18.85
2023-04-02T07:33:07.306Z,18.95
2023-04-02T07:38:09.779Z,14.15
2023-04-02T07:43:12.235Z,22.85
2023-04-02T07:48:15.031Z,26.83
2023-04-02T07:53:30.514Z,27.15
2023-04-02T07:58:33.615Z,27.65
2023-04-02T08:03:35.968Z,34.53
2023-04-02T08:08:38.319Z,16.27
2023-04-02T08:13:40.603Z,18.92
2023-04-02T08:18:42.723Z,18.50
2023-04-02T08:23:45.373Z,13.15
2023-04-02T08:28:47.485Z,42.30
2023-04-02T08:33:49.581Z,24.60
2023-04-02T08:38:51.775Z,23.45
2023-04-02T08:44:18.389Z,19.52
2023-04-02T08:49:36.020Z,26.00
2023-04-02T08:54:38.176Z,34.03
2023-04-02T08:59:43.357Z,38.28
2023-04-02T09:04:45.736Z,26.25
2023-04-02T09:09:50.131Z,29.40
2023-04-02T09:15:22.758Z,24.63
2023-04-02T09:20:26.635Z,25.15
2023-04-02T09:31:02.388Z,24.98
2023-04-02T09:36:04.879Z,33.20
2023-04-02T09:41:18.810Z,27.70
2023-04-02T09:46:26.029Z,32.72
2023-04-02T09:51:36.721Z,28.63
2023-04-02T09:56:40.768Z,30.80
2023-04-02T10:01:50.576Z,18.92
2023-04-02T10:06:58.094Z,30.75
2023-04-02T10:12:02.486Z,36.72
2023-04-02T10:17:27.948Z,25.73
2023-04-02T10:22:30.151Z,23.40
2023-04-02T10:27:40.871Z,29.38
2023-04-02T10:33:00.889Z,34.10
2023-04-02T10:38:14.303Z,44.63
2023-04-02T10:43:51.910Z,42.33
2023-04-02T10:49:12.442Z,39.70
2023-04-02T10:55:05.360Z,40.72
2023-04-02T11:00:19.064Z,36.75
2023-04-02T11:05:58.751Z,42.53
2023-04-02T11:11:20.329Z,40.47
2023-04-02T11:16:22.790Z,37.97
2023-04-02T11:21:30.577Z,36.95
2023-04-02T11:26:46.366Z,46.58
2023-04-02T11:31:51.275Z,32.80
2023-04-02T11:36:53.972Z,36.13
2023-04-02T11:42:09.689Z,42.13
2023-04-02T11:47:16.811Z,42.03
2023-04-02T11:52:59.858Z,35.72
2023-04-02T11:58:17.737Z,42.85
2023-04-02T12:03:37.503Z,42.08
2023-04-02T12:08:58.047Z,39.97
2023-04-02T12:14:01.411Z,52.17
2023-04-02T12:19:09.512Z,42.38
2023-04-02T12:24:21.845Z,48.85
2023-04-02T12:29:27.461Z,43.75
2023-04-02T12:34:30.959Z,36.88
2023-04-02T12:39:34.787Z,42.28
2023-04-02T12:44:37.101Z,47.72
2023-04-02T12:49:41.879Z,41.25
2023-04-02T12:55:06.338Z,42.13
2023-04-02T13:00:20.410Z,39.35
2023-04-02T13:05:42.970Z,42.40
2023-04-02T13:10:45.954Z,43.13
2023-04-02T13:16:20.484Z,45.40
2023-04-02T13:21:30.068Z,45.67
2023-04-02T13:26:32.154Z,39.35
2023-04-02T13:31:34.456Z,41.58
2023-04-02T13:36:37.704Z,32.75
2023-04-02T13:41:43.219Z,37.03
2023-04-02T13:46:45.405Z,38.33
2023-04-02T13:51:50.189Z,33.72
2023-04-02T13:56:53.007Z,39.95
2023-04-02T14:01:59.224Z,34.70
2023-04-02T14:07:28.486Z,37.33
2023-04-02T14:12:33.687Z,27.80
2023-04-02T14:18:00.979Z,39.08
2023-04-02T14:23:33.927Z,31.90
2023-04-02T14:28:43.117Z,26.02
2023-04-02T14:34:03.745Z,34.55
2023-04-02T14:39:33.110Z,28.90
2023-04-02T14:44:56.824Z,26.42
2023-04-02T14:50:10.259Z,29.25
2023-04-02T14:55:24.035Z,35.00
2023-04-02T15:00:37.908Z,32.65
2023-04-02T15:05:54.196Z,46.97
2023-04-02T15:11:21.620Z,35.15
2023-04-02T15:16:26.907Z,28.30
2023-04-02T15:22:13.944Z,28.67
2023-04-02T15:27:30.586Z,36.10
2023-04-02T15:32:32.747Z,35.65
2023-04-02T15:38:12.087Z,37.03
2023-04-02T15:43:20.544Z,33.20
2023-04-02T15:48:28.518Z,24.60
2023-04-02T15:53:48.477Z,30.40
2023-04-02T15:59:28.742Z,27.20
2023-04-02T16:04:37.037Z,22.08
2023-04-02T16:10:10.635Z,30.20
2023-04-02T16:15:31.943Z,27.13
2023-04-02T16:20:44.055Z,29.25
2023-04-02T16:26:27.241Z,24.55
2023-04-02T16:31:50.831Z,26.15
2023-04-02T16:37:10.426Z,27.33
2023-04-02T16:42:49.613Z,32.03
2023-04-02T16:48:36.298Z,29.05
2023-04-02T16:54:16.016Z,26.52
2023-04-02T16:59:35.198Z,24.17
2023-04-02T17:05:11.064Z,29.25
2023-04-02T17:10:42.345Z,22.55
2023-04-02T17:15:51.866Z,28.63
2023-04-02T17:20:54.788Z,24.92
2023-04-02T17:26:02.449Z,29.13
2023-04-02T17:31:13.036Z,23.08
2023-04-02T17:36:26.683Z,21.83
2023-04-02T17:41:43.629Z,30.05
2023-04-02T17:47:13.516Z,20.42
2023-04-02T17:52:33.884Z,32.55
2023-04-02T17:58:01.727Z,20.27
2023-04-02T18:03:51.806Z,35.22
2023-04-02T18:09:04.456Z,33.40
2023-04-02T18:14:24.836Z,30.15
2023-04-02T18:20:16.229Z,27.95
2023-04-02T18:25:18.207Z,24.70
2023-04-02T18:30:58.697Z,30.20
2023-04-02T18:36:11.478Z,27.60
2023-04-02T18:41:16.716Z,31.38
2023-04-02T18:46:33.833Z,30.42
2023-04-02T18:51:39.422Z,23.13
2023-04-02T18:56:42.957Z,25.67
2023-04-02T19:01:49.237Z,23.88
2023-04-02T19:07:03.958Z,28.05
2023-04-02T19:12:21.197Z,27.15
2023-04-02T19:18:01.744Z,27.77
2023-04-02T19:23:03.947Z,25.35
2023-04-02T19:28:20.995Z,27.23
2023-04-02T19:33:26.119Z,27.38
2023-04-02T19:39:08.888Z,34.03
2023-04-02T19:44:13.449Z,22.17
2023-04-02T19:49:28.542Z,23.70
2023-04-02T19:54:30.966Z,23.25
2023-04-02T19:59:33.164Z,22.30
2023-04-02T20:04:35.402Z,27.67
2023-04-02T20:09:37.540Z,25.35
2023-04-02T20:14:39.739Z,24.10
2023-04-02T20:19:42.202Z,26.15
2023-04-02T20:24:44.680Z,29.00
2023-04-02T20:29:46.893Z,28.50
2023-04-02T20:34:49.374Z,26.50
2023-04-02T20:39:51.699Z,21.75
2023-04-02T20:44:53.912Z,24.08
2023-04-02T20:49:56.513Z,22.35
2023-04-02T20:54:58.691Z,21.65
2023-04-02T21:00:02.896Z,17.25
2023-04-02T21:05:05.382Z,23.15
2023-04-02T21:10:07.986Z,25.83
2023-04-02T21:15:12.255Z,25.33
2023-04-02T21:20:14.476Z,20.20
2023-04-02T21:25:16.623Z,19.98
2023-04-02T21:30:18.688Z,23.67
2023-04-02T21:35:20.805Z,20.70
2023-04-02T21:40:22.906Z,22.25
2023-04-02T21:45:25.012Z,25.00
2023-04-02T21:50:27.084Z,24.25
2023-04-02T21:55:29.289Z,19.67
2023-04-02T22:00:31.279Z,30.48
2023-04-02T22:05:33.409Z,24.92
2023-04-02T22:10:36.222Z,28.27
2023-04-02T22:15:38.622Z,32.38
2023-04-02T22:20:41.405Z,29.27
2023-04-02T22:25:43.495Z,23.80
2023-04-02T22:30:46.032Z,19.38
2023-04-02T22:35:52.440Z,24.77
2023-04-02T22:41:04.976Z,27.90
2023-04-02T22:46:09.419Z,19.27
2023-04-02T22:51:13.623Z,18.42
2023-04-02T22:56:22.186Z,25.13
2023-04-02T23:01:27.761Z,25.92
2023-04-02T23:06:30.022Z,28.02
2023-04-02T23:11:32.193Z,30.77
2023-04-02T23:16:34.449Z,32.50
2023-04-02T23:21:36.700Z,26.70
2023-04-02T23:26:39.058Z,22.88
2023-04-02T23:31:41.205Z,26.60
2023-04-02T23:36:43.450Z,26.42
2023-04-02T23:41:45.688Z,31.23
2023-04-02T23:46:47.883Z,24.45
2023-04-02T23:51:50.060Z,20.38
2023-04-02T23:56:52.352Z,32.13
